Time;durP1;ratioP1;P1;durP2;ratioP2;P2;SDS_P1;SDS_P2;PMS_P1;PMS_P2;Temp;Humidity;BMP_temperature;BMP_pressure;BME280_temperature;BME280_humidity;BME280_pressure;Samples;Min_cycle;Max_cycle;Signal;HPM_P1;HPM_P2
2023/01/03 00:00:15;;;;;;;2.70;2.60;;;;;;;;;;6285633;28;20291;-83
2023/01/03 00:03:20;;;;;;;2.50;2.37;;;;;;;;;;6285665;28;20267;-83
2023/01/03 00:06:28;;;;;;;2.00;2.00;;;;;;;;;;6285406;28;20564;-83
2023/01/03 00:09:34;;;;;;;2.10;2.10;;;;;;;;;;6285772;28;20276;-83
2023/01/03 00:12:40;;;;;;;2.50;2.40;;;;;;;;;;6272359;28;20264;-83
2023/01/03 00:15:45;;;;;;;2.50;2.30;;;;;;;;;;6260751;28;20267;-83
2023/01/03 00:18:50;;;;;;;2.47;2.47;;;;;;;;;;6260915;28;20585;-83
2023/01/03 00:21:57;;;;;;;3.03;2.87;;;;;;;;;;6261205;28;20607;-83
2023/01/03 00:25:02;;;;;;;3.30;3.20;;;;;;;;;;6261899;28;20280;-83
2023/01/03 00:28:08;;;;;;;3.80;3.60;;;;;;;;;;6274954;28;20231;-81
2023/01/03 00:31:13;;;;;;;5.10;4.07;;;;;;;;;;6272784;28;20379;-82
2023/01/03 00:34:19;;;;;;;4.63;4.17;;;;;;;;;;6275708;28;20277;-83
2023/01/03 00:37:26;;;;;;;6.23;4.23;;;;;;;;;;6263328;28;20291;-82
2023/01/03 00:40:31;;;;;;;4.67;4.20;;;;;;;;;;6264727;28;20589;-82
2023/01/03 00:43:37;;;;;;;4.83;4.50;;;;;;;;;;6264039;28;20273;-82
2023/01/03 00:46:43;;;;;;;4.83;4.43;;;;;;;;;;6264003;28;20263;-82
2023/01/03 00:49:48;;;;;;;5.97;4.90;;;;;;;;;;6264477;28;20272;-82
2023/01/03 00:52:55;;;;;;;4.10;3.70;;;;;;;;;;6264301;28;20269;-84
2023/01/03 00:56:03;;;;;;;5.87;4.47;;;;;;;;;;6263942;28;20275;-82
2023/01/03 00:59:09;;;;;;;4.73;4.33;;;;;;;;;;6264265;28;20447;-82
2023/01/03 01:02:14;;;;;;;3.90;3.70;;;;;;;;;;6262872;28;20288;-81
2023/01/03 01:05:20;;;;;;;3.87;3.67;;;;;;;;;;6263996;28;20299;-81
2023/01/03 01:08:26;;;;;;;3.93;3.50;;;;;;;;;;6263997;28;20288;-83
2023/01/03 01:11:32;;;;;;;4.20;3.90;;;;;;;;;;6268271;28;20273;-83
2023/01/03 01:14:37;;;;;;;3.73;3.43;;;;;;;;;;6288944;28;20576;-83
2023/01/03 01:17:42;;;;;;;4.00;3.60;;;;;;;;;;6288546;28;20270;-83
2023/01/03 01:20:48;;;;;;;3.03;2.87;;;;;;;;;;6289097;28;20295;-83
2023/01/03 01:23:55;;;;;;;3.07;2.67;;;;;;;;;;6288572;28;20473;-81
2023/01/03 01:27:00;;;;;;;3.10;3.00;;;;;;;;;;6288095;28;20278;-82
2023/01/03 01:30:07;;;;;;;2.80;2.70;;;;;;;;;;6286962;28;20263;-82
2023/01/03 01:33:14;;;;;;;2.60;2.50;;;;;;;;;;6288383;28;20262;-82
2023/01/03 01:36:21;;;;;;;2.50;2.50;;;;;;;;;;6287635;28;20266;-82
2023/01/03 01:39:28;;;;;;;2.40;2.30;;;;;;;;;;6288161;28;20270;-82
2023/01/03 01:45:56;;;;;;;1.83;1.83;;;;;;;;;;6288095;28;20269;-82
2023/01/03 01:49:05;;;;;;;2.23;2.20;;;;;;;;;;6287906;28;20548;-81
2023/01/03 01:52:13;;;;;;;2.20;2.00;;;;;;;;;;6270941;28;20585;-81
2023/01/03 01:55:23;;;;;;;1.90;1.80;;;;;;;;;;6287044;28;20358;-81
2023/01/03 01:58:31;;;;;;;2.33;2.20;;;;;;;;;;6287255;28;20273;-82
2023/01/03 02:01:36;;;;;;;1.67;1.60;;;;;;;;;;6287174;28;20291;-80
2023/01/03 02:04:42;;;;;;;1.60;1.60;;;;;;;;;;6287189;28;20306;-82
2023/01/03 02:07:49;;;;;;;1.80;1.70;;;;;;;;;;6269623;28;20369;-82
2023/01/03 02:11:13;;;;;;;1.57;1.57;;;;;;;;;;6286482;28;20546;-82
2023/01/03 02:14:33;;;;;;;1.50;1.50;;;;;;;;;;6262786;28;20271;-82
2023/01/03 02:17:45;;;;;;;1.37;1.37;;;;;;;;;;6262301;28;20268;-80
2023/01/03 02:21:14;;;;;;;3.40;1.73;;;;;;;;;;6262377;28;20292;-80
2023/01/03 02:24:41;;;;;;;1.73;1.73;;;;;;;;;;6262362;28;20267;-82
2023/01/03 02:28:25;;;;;;;2.20;1.83;;;;;;;;;;6261377;28;20298;-82
2023/01/03 02:31:38;;;;;;;2.53;1.73;;;;;;;;;;6182172;28;20275;-81
2023/01/03 02:34:49;;;;;;;1.33;1.33;;;;;;;;;;6261970;28;20274;-81
2023/01/03 02:37:59;;;;;;;1.53;1.53;;;;;;;;;;6261867;28;20560;-81
2023/01/03 02:41:08;;;;;;;1.50;1.40;;;;;;;;;;6262090;28;20295;-81
2023/01/03 02:44:22;;;;;;;1.50;1.50;;;;;;;;;;6263340;28;20267;-81
2023/01/03 02:47:30;;;;;;;1.40;1.40;;;;;;;;;;6262081;28;20264;-81
2023/01/03 02:50:39;;;;;;;1.30;1.30;;;;;;;;;;6264047;28;20271;-81
2023/01/03 02:53:47;;;;;;;1.30;1.30;;;;;;;;;;6264745;28;20455;-79
2023/01/03 02:56:56;;;;;;;1.40;1.40;;;;;;;;;;6262151;28;20267;-80
2023/01/03 03:00:07;;;;;;;1.20;1.20;;;;;;;;;;6261637;28;20505;-80
2023/01/03 03:03:18;;;;;;;1.37;1.37;;;;;;;;;;6261796;28;20295;-80
2023/01/03 03:06:29;;;;;;;1.40;1.40;;;;;;;;;;6261409;28;20306;-80
2023/01/03 03:13:11;;;;;;;1.83;1.30;;;;;;;;;;6260457;28;20450;-80
2023/01/03 03:13:13;;;;;;;1.50;1.40;;;;;;;;;;6261380;28;20352;-80
2023/01/03 03:16:46;;;;;;;1.30;1.30;;;;;;;;;;6260440;28;20269;-80
2023/01/03 03:26:55;;;;;;;1.77;1.30;;;;;;;;;;6260312;28;20275;-80
2023/01/03 03:30:02;;;;;;;1.10;1.10;;;;;;;;;;6259257;28;20292;-80
2023/01/03 03:33:08;;;;;;;1.33;1.33;;;;;;;;;;6260853;28;20279;-81
2023/01/03 03:36:19;;;;;;;2.00;1.17;;;;;;;;;;6260785;28;20267;-80
2023/01/03 03:46:20;;;;;;;2.90;1.07;;;;;;;;;;6260502;28;20271;-80
2023/01/03 03:49:38;;;;;;;1.10;1.10;;;;;;;;;;6260541;28;20272;-79
2023/01/03 03:52:46;;;;;;;1.30;1.30;;;;;;;;;;6260530;28;20290;-79
2023/01/03 03:55:56;;;;;;;1.60;1.33;;;;;;;;;;6260429;28;20291;-79
2023/01/03 03:59:06;;;;;;;1.00;1.00;;;;;;;;;;6260600;28;20296;-80
2023/01/03 04:02:12;;;;;;;1.17;1.17;;;;;;;;;;6260417;28;20281;-80
2023/01/03 04:05:20;;;;;;;1.23;1.23;;;;;;;;;;6261083;28;20299;-80
2023/01/03 04:08:27;;;;;;;1.10;1.10;;;;;;;;;;6265372;28;20268;-80
2023/01/03 04:11:32;;;;;;;1.10;1.10;;;;;;;;;;6269338;28;20508;-80
2023/01/03 04:14:37;;;;;;;1.37;1.10;;;;;;;;;;6273359;28;20446;-80
2023/01/03 04:17:43;;;;;;;1.30;1.30;;;;;;;;;;6304492;28;20227;-81
2023/01/03 04:20:48;;;;;;;1.90;1.10;;;;;;;;;;6302961;28;20226;-80
2023/01/03 04:23:55;;;;;;;1.20;1.20;;;;;;;;;;6289718;28;20289;-80
2023/01/03 04:27:00;;;;;;;1.20;1.20;;;;;;;;;;6289280;28;20282;-80
2023/01/03 04:30:06;;;;;;;1.40;1.37;;;;;;;;;;6289868;28;20267;-80
2023/01/03 04:33:13;;;;;;;1.23;1.23;;;;;;;;;;6289414;28;20441;-79
2023/01/03 04:36:18;;;;;;;1.80;1.13;;;;;;;;;;6289407;28;20274;-81
2023/01/03 04:39:25;;;;;;;1.23;1.17;;;;;;;;;;6289647;28;20361;-80
2023/01/03 04:45:53;;;;;;;1.10;1.10;;;;;;;;;;6288894;28;20280;-80
2023/01/03 04:48:59;;;;;;;1.20;1.20;;;;;;;;;;6288819;28;20271;-79
2023/01/03 04:52:04;;;;;;;1.30;1.30;;;;;;;;;;6288891;28;20284;-79
2023/01/03 04:55:12;;;;;;;1.20;1.20;;;;;;;;;;6288469;28;20270;-81
2023/01/03 04:58:17;;;;;;;1.30;1.30;;;;;;;;;;6288538;28;20563;-79
2023/01/03 05:01:22;;;;;;;1.87;1.40;;;;;;;;;;6289000;28;20271;-80
2023/01/03 05:04:28;;;;;;;1.20;1.20;;;;;;;;;;6288837;28;20394;-80
2023/01/03 05:07:33;;;;;;;0.73;0.70;;;;;;;;;;6288750;28;20273;-80
2023/01/03 05:10:40;;;;;;;1.30;1.30;;;;;;;;;;6270614;28;20275;-80
2023/01/03 05:13:45;;;;;;;1.20;1.20;;;;;;;;;;6288340;28;20270;-80
2023/01/03 05:16:51;;;;;;;1.30;1.20;;;;;;;;;;6287867;28;20437;-80
2023/01/03 05:26:43;;;;;;;1.70;1.30;;;;;;;;;;6288295;28;20273;-79
2023/01/03 05:29:49;;;;;;;2.53;1.30;;;;;;;;;;6270124;28;20274;-80
2023/01/03 05:32:54;;;;;;;1.30;1.30;;;;;;;;;;6287981;28;20281;-79
2023/01/03 05:36:00;;;;;;;1.90;1.20;;;;;;;;;;6287590;28;20289;-80
2023/01/03 05:39:05;;;;;;;1.37;1.37;;;;;;;;;;6288034;28;20410;-80
2023/01/03 05:42:12;;;;;;;1.23;1.23;;;;;;;;;;6288106;28;20481;-80
2023/01/03 05:45:18;;;;;;;1.20;1.10;;;;;;;;;;6287986;28;20569;-80
2023/01/03 05:48:24;;;;;;;1.10;1.10;;;;;;;;;;6288167;28;20260;-80
2023/01/03 05:51:29;;;;;;;1.33;1.20;;;;;;;;;;6287155;28;20272;-79
2023/01/03 05:54:34;;;;;;;2.20;1.30;;;;;;;;;;6287853;28;20283;-79
2023/01/03 05:57:41;;;;;;;1.90;1.30;;;;;;;;;;6269885;28;20272;-79
2023/01/03 06:00:46;;;;;;;1.30;1.20;;;;;;;;;;6286861;28;20286;-80
2023/01/03 06:03:51;;;;;;;1.20;1.20;;;;;;;;;;6269091;28;20291;-80
2023/01/03 06:06:56;;;;;;;3.80;1.20;;;;;;;;;;6287016;28;20279;-80
2023/01/03 06:10:01;;;;;;;6.03;1.30;;;;;;;;;;6287263;28;20353;-80
2023/01/03 06:13:08;;;;;;;1.23;1.23;;;;;;;;;;6287485;28;20448;-80
2023/01/03 06:19:38;;;;;;;1.63;1.40;;;;;;;;;;6287120;28;20271;-81
2023/01/03 06:22:43;;;;;;;1.53;1.53;;;;;;;;;;6286496;28;20288;-81
2023/01/03 06:25:48;;;;;;;1.13;1.10;;;;;;;;;;6287067;28;20267;-81
2023/01/03 06:28:55;;;;;;;3.93;1.40;;;;;;;;;;6286764;28;20264;-80
2023/01/03 06:32:00;;;;;;;1.40;1.07;;;;;;;;;;6285986;28;20269;-81
2023/01/03 06:35:14;;;;;;;1.70;1.27;;;;;;;;;;6286680;28;20278;-81
2023/01/03 06:38:19;;;;;;;1.23;1.13;;;;;;;;;;6286902;28;20587;-80
2023/01/03 06:41:25;;;;;;;1.47;1.20;;;;;;;;;;6286711;28;20275;-80
2023/01/03 06:44:31;;;;;;;1.07;1.07;;;;;;;;;;6286125;28;20290;-80
2023/01/03 06:54:27;;;;;;;1.50;1.40;;;;;;;;;;6284774;28;20273;-80
2023/01/03 06:57:32;;;;;;;1.53;1.30;;;;;;;;;;6286064;28;20301;-79
2023/01/03 07:00:39;;;;;;;1.90;1.30;;;;;;;;;;6286263;28;20279;-79
2023/01/03 07:03:44;;;;;;;1.30;1.30;;;;;;;;;;6285601;28;20294;-80
2023/01/03 07:06:50;;;;;;;1.37;1.37;;;;;;;;;;6285670;28;20289;-80
2023/01/03 07:09:55;;;;;;;1.20;1.20;;;;;;;;;;6267843;28;20300;-80
2023/01/03 07:16:26;;;;;;;1.57;1.43;;;;;;;;;;6285941;28;20425;-80
2023/01/03 07:19:31;;;;;;;4.97;1.37;;;;;;;;;;6285380;28;20274;-80
2023/01/03 07:22:36;;;;;;;4.23;1.40;;;;;;;;;;6285212;28;20273;-80
2023/01/03 07:25:42;;;;;;;1.50;1.40;;;;;;;;;;6285173;28;20311;-80
2023/01/03 07:28:47;;;;;;;1.90;1.50;;;;;;;;;;6268031;28;20262;-80
2023/01/03 07:31:53;;;;;;;3.87;1.27;;;;;;;;;;6284009;28;20266;-81
2023/01/03 07:34:59;;;;;;;1.60;1.27;;;;;;;;;;6285222;28;20277;-81
2023/01/03 07:38:04;;;;;;;1.50;1.40;;;;;;;;;;6285112;28;20266;-81
2023/01/03 07:41:11;;;;;;;1.70;1.30;;;;;;;;;;6284711;28;20294;-81
2023/01/03 07:44:15;;;;;;;2.73;1.20;;;;;;;;;;6285395;28;20601;-81
2023/01/03 07:47:22;;;;;;;3.60;1.30;;;;;;;;;;6285331;28;20266;-81
2023/01/03 07:50:27;;;;;;;1.40;1.40;;;;;;;;;;6285188;28;20279;-81
2023/01/03 07:53:34;;;;;;;1.07;1.00;;;;;;;;;;6285362;28;20266;-81
2023/01/03 07:56:39;;;;;;;1.20;1.10;;;;;;;;;;6267355;28;20271;-80
2023/01/03 07:59:45;;;;;;;1.33;1.23;;;;;;;;;;6284585;28;20267;-83
2023/01/03 08:02:53;;;;;;;1.40;0.90;;;;;;;;;;6283361;28;20543;-81
2023/01/03 08:06:03;;;;;;;1.27;1.13;;;;;;;;;;6284555;28;20366;-80
2023/01/03 08:15:55;;;;;;;1.20;1.07;;;;;;;;;;6284806;28;20271;-82
2023/01/03 08:19:02;;;;;;;0.83;0.83;;;;;;;;;;6284159;28;20290;-80
2023/01/03 08:22:07;;;;;;;2.17;1.03;;;;;;;;;;6285142;28;20282;-81
2023/01/03 08:25:13;;;;;;;0.80;0.80;;;;;;;;;;6285316;28;20286;-80
2023/01/03 08:28:18;;;;;;;1.20;1.00;;;;;;;;;;6284535;28;20378;-79
2023/01/03 08:31:25;;;;;;;1.20;1.10;;;;;;;;;;6284864;28;20286;-80
2023/01/03 08:34:35;;;;;;;1.10;1.10;;;;;;;;;;6284505;28;20350;-81
2023/01/03 08:37:40;;;;;;;0.97;0.97;;;;;;;;;;6284790;28;20270;-81
2023/01/03 08:40:46;;;;;;;1.07;1.00;;;;;;;;;;6284367;28;20276;-80
2023/01/03 08:43:51;;;;;;;2.43;1.00;;;;;;;;;;6284552;28;20271;-80
2023/01/03 08:46:59;;;;;;;1.10;1.10;;;;;;;;;;6266622;28;20293;-80
2023/01/03 08:50:06;;;;;;;0.83;0.83;;;;;;;;;;6284839;28;20269;-79
2023/01/03 08:53:13;;;;;;;0.80;0.80;;;;;;;;;;6285935;28;20434;-81
2023/01/03 08:56:19;;;;;;;0.83;0.83;;;;;;;;;;6288916;28;20274;-81
2023/01/03 08:59:25;;;;;;;1.50;1.07;;;;;;;;;;6289084;28;20266;-81
2023/01/03 09:02:30;;;;;;;0.90;0.90;;;;;;;;;;6288486;28;20270;-80
2023/01/03 09:05:37;;;;;;;1.00;1.00;;;;;;;;;;6288422;28;20329;-81
2023/01/03 09:08:42;;;;;;;3.13;1.73;;;;;;;;;;6288565;28;20273;-80
2023/01/03 09:11:48;;;;;;;1.07;1.07;;;;;;;;;;6287182;28;20262;-80
2023/01/03 09:14:55;;;;;;;1.30;1.30;;;;;;;;;;6288338;28;20275;-81
2023/01/03 09:18:00;;;;;;;1.13;0.97;;;;;;;;;;6288486;28;20278;-80
2023/01/03 09:21:07;;;;;;;1.47;1.30;;;;;;;;;;6288302;28;20278;-81
2023/01/03 09:24:12;;;;;;;1.00;1.00;;;;;;;;;;6287141;28;20570;-81
2023/01/03 09:27:17;;;;;;;2.17;1.20;;;;;;;;;;6287914;28;20294;-80
2023/01/03 09:30:23;;;;;;;1.07;1.07;;;;;;;;;;6288477;28;20565;-80
2023/01/03 09:33:28;;;;;;;1.00;1.00;;;;;;;;;;6287566;28;20290;-80
2023/01/03 09:36:37;;;;;;;1.10;1.00;;;;;;;;;;6288297;28;20282;-81
2023/01/03 09:39:42;;;;;;;1.00;1.00;;;;;;;;;;6269784;28;20567;-81
2023/01/03 09:46:18;;;;;;;1.23;1.07;;;;;;;;;;6269803;28;20298;-81
2023/01/03 09:49:23;;;;;;;1.00;1.00;;;;;;;;;;6287463;28;20286;-81
2023/01/03 10:06:34;;;;;;;2.17;1.10;;;;;;;;;;6286938;28;20610;-80
2023/01/03 10:09:46;;;;;;;1.17;1.00;;;;;;;;;;6269585;28;20343;-81
2023/01/03 10:12:57;;;;;;;1.00;1.00;;;;;;;;;;6286945;28;20261;-81
2023/01/03 10:16:09;;;;;;;1.07;0.93;;;;;;;;;;6287434;28;20273;-82
2023/01/03 10:19:25;;;;;;;1.17;1.07;;;;;;;;;;6287524;28;20537;-81
2023/01/03 10:22:31;;;;;;;1.40;1.00;;;;;;;;;;6292414;28;20310;-82
2023/01/03 10:25:39;;;;;;;1.70;0.90;;;;;;;;;;6303249;28;20277;-80
2023/01/03 10:28:46;;;;;;;1.00;1.00;;;;;;;;;;6303475;28;20227;-79
2023/01/03 10:32:07;;;;;;;0.90;0.90;;;;;;;;;;6294006;28;20264;-81
2023/01/03 10:35:21;;;;;;;1.03;0.90;;;;;;;;;;6287052;28;20267;-80
2023/01/03 10:38:27;;;;;;;0.90;0.90;;;;;;;;;;6286879;28;20268;-81
2023/01/03 10:41:40;;;;;;;1.20;1.10;;;;;;;;;;6286396;28;20553;-80
2023/01/03 10:44:58;;;;;;;0.80;0.80;;;;;;;;;;6286901;28;20269;-81
2023/01/03 10:48:04;;;;;;;2.10;1.13;;;;;;;;;;6269230;28;20590;-81
2023/01/03 10:51:26;;;;;;;1.50;1.10;;;;;;;;;;6299284;28;20227;-79
2023/01/03 10:54:36;;;;;;;1.00;1.00;;;;;;;;;;6289990;28;20264;-80
2023/01/03 10:57:47;;;;;;;1.00;1.00;;;;;;;;;;6286105;28;20276;-80
2023/01/03 11:00:53;;;;;;;1.00;1.00;;;;;;;;;;6268800;28;20272;-82
2023/01/03 11:04:09;;;;;;;1.00;1.00;;;;;;;;;;6285416;28;20294;-81
2023/01/03 11:07:15;;;;;;;1.10;1.10;;;;;;;;;;6287074;28;20285;-80
2023/01/03 11:10:21;;;;;;;1.00;1.00;;;;;;;;;;6286243;28;20270;-80
2023/01/03 11:13:33;;;;;;;0.90;0.90;;;;;;;;;;6286072;28;20268;-81
2023/01/03 11:16:38;;;;;;;1.30;1.30;;;;;;;;;;6285156;28;20268;-80
2023/01/03 11:19:45;;;;;;;1.10;1.10;;;;;;;;;;6286688;28;20264;-82
2023/01/03 11:22:56;;;;;;;1.07;1.07;;;;;;;;;;6269244;28;20371;-81
2023/01/03 11:26:05;;;;;;;1.47;1.20;;;;;;;;;;6286515;28;20280;-81
2023/01/03 11:29:46;;;;;;;1.67;1.30;;;;;;;;;;6287534;28;20273;-81
2023/01/03 11:33:05;;;;;;;3.07;1.13;;;;;;;;;;6287859;28;20277;-81
2023/01/03 11:36:25;;;;;;;1.13;1.00;;;;;;;;;;6287853;28;20456;-81
2023/01/03 11:39:44;;;;;;;1.10;1.00;;;;;;;;;;6286452;28;20265;-81
2023/01/03 11:42:55;;;;;;;1.00;1.00;;;;;;;;;;6287571;28;20277;-81
2023/01/03 11:46:17;;;;;;;0.77;0.77;;;;;;;;;;6286330;28;20270;-81
2023/01/03 11:49:28;;;;;;;1.30;1.30;;;;;;;;;;6287890;28;20268;-81
2023/01/03 11:52:39;;;;;;;0.93;0.93;;;;;;;;;;6288513;28;20276;-80
2023/01/03 11:55:56;;;;;;;1.00;1.00;;;;;;;;;;6262127;28;20297;-81
2023/01/03 11:59:17;;;;;;;4.53;1.07;;;;;;;;;;6264999;28;20278;-81
2023/01/03 12:02:43;;;;;;;1.00;1.00;;;;;;;;;;6265329;28;20273;-81
2023/01/03 12:05:51;;;;;;;1.10;1.10;;;;;;;;;;6262961;28;20302;-81
2023/01/03 12:09:10;;;;;;;5.00;1.30;;;;;;;;;;6262834;28;20299;-80
2023/01/03 12:12:31;;;;;;;2.33;1.00;;;;;;;;;;6263285;28;20318;-81
2023/01/03 12:15:44;;;;;;;1.03;1.03;;;;;;;;;;6263863;28;20273;-82
2023/01/03 12:18:55;;;;;;;0.90;0.90;;;;;;;;;;6264036;28;20274;-82
2023/01/03 12:22:05;;;;;;;1.60;1.03;;;;;;;;;;6263860;28;20261;-81
2023/01/03 12:25:21;;;;;;;1.10;1.00;;;;;;;;;;6263762;28;20259;-80
2023/01/03 12:28:30;;;;;;;0.90;0.90;;;;;;;;;;6266633;28;20305;-81
2023/01/03 12:31:37;;;;;;;0.90;0.90;;;;;;;;;;6266565;28;20571;-80
2023/01/03 12:34:50;;;;;;;0.90;0.90;;;;;;;;;;6266791;28;20271;-80
2023/01/03 12:37:57;;;;;;;0.93;0.93;;;;;;;;;;6265651;28;20277;-80
2023/01/03 12:41:08;;;;;;;0.90;0.90;;;;;;;;;;6265844;28;20269;-81
2023/01/03 12:44:17;;;;;;;2.20;1.07;;;;;;;;;;6265509;28;20286;-81
2023/01/03 12:47:28;;;;;;;1.53;1.00;;;;;;;;;;6265476;28;20280;-80
2023/01/03 12:50:37;;;;;;;1.13;0.90;;;;;;;;;;6265397;28;20419;-83
2023/01/03 12:53:45;;;;;;;1.07;1.00;;;;;;;;;;6265158;28;20277;-82
2023/01/03 12:57:10;;;;;;;2.20;1.00;;;;;;;;;;6265094;28;20294;-82
2023/01/03 13:00:27;;;;;;;1.53;0.97;;;;;;;;;;6264772;28;20269;-82
2023/01/03 13:03:37;;;;;;;1.37;1.10;;;;;;;;;;6280025;28;20316;-81
2023/01/03 13:06:48;;;;;;;0.83;0.83;;;;;;;;;;6264812;28;20297;-81
2023/01/03 13:09:57;;;;;;;1.27;1.23;;;;;;;;;;6264710;28;20276;-81
2023/01/03 13:13:06;;;;;;;0.90;0.90;;;;;;;;;;6264346;28;20557;-81
2023/01/03 13:16:43;;;;;;;0.90;0.90;;;;;;;;;;6264638;28;20270;-81
2023/01/03 13:20:01;;;;;;;1.60;1.30;;;;;;;;;;6263979;28;20269;-80
2023/01/03 13:23:33;;;;;;;0.80;0.80;;;;;;;;;;6264254;28;20293;-80
2023/01/03 13:26:39;;;;;;;1.10;1.10;;;;;;;;;;6263739;28;20263;-80
2023/01/03 13:29:45;;;;;;;1.10;1.10;;;;;;;;;;6263897;28;20295;-80
2023/01/03 13:32:53;;;;;;;1.20;0.93;;;;;;;;;;6263710;28;20273;-81
2023/01/03 13:36:01;;;;;;;1.90;0.90;;;;;;;;;;6263501;28;20280;-81
2023/01/03 13:39:34;;;;;;;1.57;0.90;;;;;;;;;;6262929;28;20268;-82
2023/01/03 13:42:40;;;;;;;1.40;1.17;;;;;;;;;;6264071;28;20276;-79
2023/01/03 13:46:00;;;;;;;0.97;0.97;;;;;;;;;;6263762;28;20277;-80
2023/01/03 13:49:07;;;;;;;0.83;0.83;;;;;;;;;;6263245;28;20296;-81
2023/01/03 13:52:36;;;;;;;1.47;1.30;;;;;;;;;;6261943;28;20273;-80
2023/01/03 13:55:46;;;;;;;0.93;0.93;;;;;;;;;;6263141;28;20439;-80
2023/01/03 13:59:04;;;;;;;0.90;0.90;;;;;;;;;;6262688;28;20368;-81
2023/01/03 14:02:48;;;;;;;0.93;0.93;;;;;;;;;;6262606;28;20400;-81
2023/01/03 14:06:01;;;;;;;0.90;0.87;;;;;;;;;;6263051;28;20297;-82
2023/01/03 14:09:25;;;;;;;1.20;1.20;;;;;;;;;;6262585;28;20286;-80
2023/01/03 14:13:08;;;;;;;1.40;0.90;;;;;;;;;;6274401;28;20266;-81
2023/01/03 14:16:19;;;;;;;0.90;0.90;;;;;;;;;;6257652;28;20291;-80
2023/01/03 14:19:29;;;;;;;1.00;1.00;;;;;;;;;;6287498;28;20280;-81
2023/01/03 14:22:38;;;;;;;0.93;0.93;;;;;;;;;;6287414;28;20271;-81
2023/01/03 14:25:45;;;;;;;1.50;1.03;;;;;;;;;;6285713;28;20274;-81
2023/01/03 14:28:52;;;;;;;1.10;1.00;;;;;;;;;;6269201;28;20287;-80
2023/01/03 14:31:59;;;;;;;1.07;1.03;;;;;;;;;;6286811;28;20268;-80
2023/01/03 14:35:05;;;;;;;1.10;1.10;;;;;;;;;;6286645;28;20268;-81
2023/01/03 14:38:26;;;;;;;0.90;0.90;;;;;;;;;;6269562;28;20274;-81
2023/01/03 14:41:33;;;;;;;1.00;1.00;;;;;;;;;;6286313;28;20297;-81
2023/01/03 14:44:38;;;;;;;1.00;1.00;;;;;;;;;;6286687;28;20465;-81
2023/01/03 14:47:45;;;;;;;0.90;0.90;;;;;;;;;;6286791;28;20279;-81
2023/01/03 14:50:51;;;;;;;1.60;1.60;;;;;;;;;;6286734;28;20273;-81
2023/01/03 14:53:57;;;;;;;3.10;2.90;;;;;;;;;;6286109;28;20270;-81
2023/01/03 14:57:04;;;;;;;7.57;4.87;;;;;;;;;;6284750;28;20271;-80
2023/01/03 15:00:17;;;;;;;3.67;3.40;;;;;;;;;;6268603;28;20303;-80
2023/01/03 15:03:24;;;;;;;2.20;2.10;;;;;;;;;;6268154;28;20431;-80
2023/01/03 15:06:31;;;;;;;1.80;1.40;;;;;;;;;;6268636;28;20299;-81
2023/01/03 15:09:36;;;;;;;2.77;2.60;;;;;;;;;;6285041;28;20286;-81
2023/01/03 15:12:45;;;;;;;4.20;3.33;;;;;;;;;;6277112;28;20260;-81
2023/01/03 15:15:54;;;;;;;1.60;1.37;;;;;;;;;;6261323;28;20279;-81
2023/01/03 15:19:08;;;;;;;1.07;1.07;;;;;;;;;;6277180;28;20299;-82
2023/01/03 15:22:15;;;;;;;1.03;1.03;;;;;;;;;;6243360;28;20346;-81
2023/01/03 15:25:24;;;;;;;2.33;1.17;;;;;;;;;;6243591;28;20265;-81
2023/01/03 15:28:31;;;;;;;1.83;1.83;;;;;;;;;;6243522;28;20288;-81
2023/01/03 15:31:38;;;;;;;1.33;1.33;;;;;;;;;;6261035;28;20292;-81
2023/01/03 15:34:45;;;;;;;1.20;1.20;;;;;;;;;;6260864;28;20275;-81
2023/01/03 15:37:53;;;;;;;2.10;1.20;;;;;;;;;;6260858;28;20265;-80
2023/01/03 15:40:59;;;;;;;1.17;1.10;;;;;;;;;;6260999;28;20280;-82
2023/01/03 15:44:03;;;;;;;1.20;1.20;;;;;;;;;;6271265;28;20263;-81
2023/01/03 15:47:09;;;;;;;1.10;1.10;;;;;;;;;;6278101;28;20224;-81
2023/01/03 15:50:18;;;;;;;1.57;1.20;;;;;;;;;;6260287;28;20283;-80
2023/01/03 15:53:26;;;;;;;1.10;1.10;;;;;;;;;;6276967;28;20220;-80
2023/01/03 15:56:34;;;;;;;2.37;1.13;;;;;;;;;;6276631;28;20224;-80
2023/01/03 15:59:40;;;;;;;0.83;0.83;;;;;;;;;;6245705;28;20290;-81
2023/01/03 16:02:48;;;;;;;1.00;1.00;;;;;;;;;;6265119;28;20275;-80
2023/01/03 16:05:54;;;;;;;1.60;1.60;;;;;;;;;;6250322;28;20294;-81
2023/01/03 16:09:00;;;;;;;1.17;1.17;;;;;;;;;;6268090;28;20295;-80
2023/01/03 16:12:05;;;;;;;1.07;1.07;;;;;;;;;;6275091;28;20348;-80
2023/01/03 16:15:16;;;;;;;1.30;1.20;;;;;;;;;;6289789;28;20272;-81
2023/01/03 16:18:26;;;;;;;1.03;1.03;;;;;;;;;;6289876;28;20565;-82
2023/01/03 16:21:33;;;;;;;2.43;1.17;;;;;;;;;;6290163;28;20362;-81
2023/01/03 16:24:39;;;;;;;1.30;1.30;;;;;;;;;;6290346;28;20278;-82
2023/01/03 16:27:44;;;;;;;0.93;0.93;;;;;;;;;;6289803;28;20486;-81
2023/01/03 16:30:59;;;;;;;2.00;1.90;;;;;;;;;;6290581;28;20290;-82
2023/01/03 16:34:06;;;;;;;1.50;1.50;;;;;;;;;;6289686;28;20273;-82
2023/01/03 16:37:13;;;;;;;1.37;1.27;;;;;;;;;;6290483;28;20270;-83
2023/01/03 16:40:20;;;;;;;1.00;1.00;;;;;;;;;;6280522;28;20271;-80
2023/01/03 16:43:25;;;;;;;1.20;1.20;;;;;;;;;;6302239;28;20231;-81
2023/01/03 16:46:31;;;;;;;1.30;1.20;;;;;;;;;;6303234;28;20449;-81
2023/01/03 16:49:36;;;;;;;1.30;1.20;;;;;;;;;;6294558;28;20452;-81
2023/01/03 16:52:45;;;;;;;1.13;1.13;;;;;;;;;;6289609;28;20267;-82
2023/01/03 16:55:53;;;;;;;1.03;1.03;;;;;;;;;;6289473;28;20268;-82
2023/01/03 16:58:58;;;;;;;1.10;1.10;;;;;;;;;;6289114;28;20283;-82
2023/01/03 17:02:03;;;;;;;1.63;1.63;;;;;;;;;;6289323;28;20567;-81
2023/01/03 17:05:10;;;;;;;5.57;3.23;;;;;;;;;;6288813;28;20297;-81
2023/01/03 17:08:21;;;;;;;1.53;1.50;;;;;;;;;;6271612;28;20283;-80
2023/01/03 17:11:26;;;;;;;2.83;1.60;;;;;;;;;;6289128;28;20584;-81
2023/01/03 17:14:34;;;;;;;1.50;1.40;;;;;;;;;;6287122;28;20556;-82
2023/01/03 17:17:39;;;;;;;1.53;1.20;;;;;;;;;;6289250;28;20447;-80
2023/01/03 17:20:44;;;;;;;1.07;1.07;;;;;;;;;;6289519;28;20275;-80
2023/01/03 17:23:53;;;;;;;1.10;1.10;;;;;;;;;;6299241;28;20273;-78
2023/01/03 17:27:03;;;;;;;1.70;1.70;;;;;;;;;;6304620;28;20242;-80
2023/01/03 17:30:12;;;;;;;1.37;1.37;;;;;;;;;;6276376;28;20290;-81
2023/01/03 17:33:17;;;;;;;1.20;1.20;;;;;;;;;;6271012;28;20270;-81
2023/01/03 17:36:25;;;;;;;1.33;1.33;;;;;;;;;;6288357;28;20294;-81
2023/01/03 17:39:31;;;;;;;1.33;1.27;;;;;;;;;;6288226;28;20286;-81
2023/01/03 17:42:38;;;;;;;1.30;1.30;;;;;;;;;;6287908;28;20271;-81
2023/01/03 17:49:25;;;;;;;1.03;1.03;;;;;;;;;;6288287;28;20276;-81
2023/01/03 17:52:33;;;;;;;1.10;1.10;;;;;;;;;;6269977;28;20272;-81
2023/01/03 17:55:40;;;;;;;1.10;1.10;;;;;;;;;;6286215;28;20279;-80
2023/01/03 17:58:47;;;;;;;1.43;1.20;;;;;;;;;;6287681;28;20559;-80
2023/01/03 18:02:00;;;;;;;1.20;1.20;;;;;;;;;;6287664;28;20271;-80
2023/01/03 18:05:06;;;;;;;1.27;1.27;;;;;;;;;;6287543;28;20303;-81
2023/01/03 18:08:30;;;;;;;1.60;1.60;;;;;;;;;;6287719;28;20272;-82
2023/01/03 18:11:36;;;;;;;1.40;1.40;;;;;;;;;;6287260;28;20278;-81
2023/01/03 18:14:42;;;;;;;1.60;1.50;;;;;;;;;;6287258;28;20450;-81
2023/01/03 18:17:47;;;;;;;1.60;1.60;;;;;;;;;;6287817;28;20554;-81
2023/01/03 18:20:53;;;;;;;2.60;2.50;;;;;;;;;;6286779;28;20281;-82
2023/01/03 18:24:00;;;;;;;1.70;1.70;;;;;;;;;;6287229;28;20267;-80
2023/01/03 18:27:08;;;;;;;1.73;1.40;;;;;;;;;;6286775;28;20555;-80
2023/01/03 18:30:15;;;;;;;1.83;1.80;;;;;;;;;;6287428;28;20290;-82
2023/01/03 18:33:20;;;;;;;1.80;1.60;;;;;;;;;;6287356;28;20286;-81
2023/01/03 18:36:27;;;;;;;1.30;1.30;;;;;;;;;;6287795;28;20389;-80
2023/01/03 18:39:32;;;;;;;1.80;1.80;;;;;;;;;;6286693;28;20465;-80
2023/01/03 18:46:03;;;;;;;4.13;1.60;;;;;;;;;;6286654;28;20450;-80
2023/01/03 18:49:09;;;;;;;1.73;1.63;;;;;;;;;;6269586;28;20557;-81
2023/01/03 18:52:22;;;;;;;1.40;1.40;;;;;;;;;;6286035;28;20287;-81
2023/01/03 18:55:29;;;;;;;1.30;1.30;;;;;;;;;;6287295;28;20272;-80
2023/01/03 18:58:38;;;;;;;1.63;1.53;;;;;;;;;;6286441;28;20453;-80
2023/01/03 19:01:43;;;;;;;1.27;1.27;;;;;;;;;;6272215;28;20266;-81
2023/01/03 19:04:49;;;;;;;1.60;1.50;;;;;;;;;;6286872;28;20291;-81
2023/01/03 19:07:55;;;;;;;1.70;1.60;;;;;;;;;;6286190;28;20263;-81
2023/01/03 19:11:06;;;;;;;1.53;1.43;;;;;;;;;;6285406;28;20382;-83
2023/01/03 19:14:14;;;;;;;2.47;1.50;;;;;;;;;;6261805;28;20273;-80
2023/01/03 19:17:20;;;;;;;1.60;1.60;;;;;;;;;;6260983;28;20359;-80
2023/01/03 19:20:26;;;;;;;1.67;1.67;;;;;;;;;;6261014;28;20264;-80
2023/01/03 19:23:31;;;;;;;1.57;1.57;;;;;;;;;;6260458;28;20266;-81
2023/01/03 19:26:40;;;;;;;1.40;1.40;;;;;;;;;;6260565;28;20271;-81
2023/01/03 19:29:47;;;;;;;1.33;1.30;;;;;;;;;;6261490;28;20276;-80
2023/01/03 19:32:54;;;;;;;1.40;1.40;;;;;;;;;;6260898;28;20291;-80
2023/01/03 19:35:59;;;;;;;1.67;1.67;;;;;;;;;;6260529;28;20275;-81
2023/01/03 19:39:04;;;;;;;2.20;1.87;;;;;;;;;;6259152;28;20267;-80
2023/01/03 19:45:40;;;;;;;1.87;1.40;;;;;;;;;;6260465;28;20267;-81
2023/01/03 19:48:45;;;;;;;1.57;1.57;;;;;;;;;;6260618;28;20275;-81
2023/01/03 19:51:51;;;;;;;1.43;1.43;;;;;;;;;;6260239;28;20310;-81
2023/01/03 19:54:56;;;;;;;1.60;1.60;;;;;;;;;;6260582;28;20447;-82
2023/01/03 19:58:03;;;;;;;2.00;1.70;;;;;;;;;;6260324;28;20268;-80
2023/01/03 20:01:13;;;;;;;1.73;1.60;;;;;;;;;;6260092;28;20276;-80
2023/01/03 20:04:18;;;;;;;1.57;1.57;;;;;;;;;;6242521;28;20299;-80
2023/01/03 20:07:23;;;;;;;1.30;1.30;;;;;;;;;;6260000;28;20436;-80